sensor_id;sensor_type;location;lat;lon;timestamp;P1;durP1;ratioP1;P2;durP2;ratioP2
4686;SDS011;2357;47.316;-1.348;2023-04-03T00:01:03;8.53;;;1.80;;
4686;SDS011;2357;47.316;-1.348;2023-04-03T00:03:29;6.80;;;1.63;;
4686;SDS011;2357;47.316;-1.348;2023-04-03T00:05:55;5.47;;;2.00;;
4686;SDS011;2357;47.316;-1.348;2023-04-03T00:08:20;1.13;;;1.03;;
4686;SDS011;2357;47.316;-1.348;2023-04-03T00:10:46;6.60;;;1.80;;
4686;SDS011;2357;47.316;-1.348;2023-04-03T00:13:12;4.77;;;1.30;;
4686;SDS011;2357;47.316;-1.348;2023-04-03T00:15:38;3.03;;;1.67;;
4686;SDS011;2357;47.316;-1.348;2023-04-03T00:18:05;5.17;;;2.57;;
4686;SDS011;2357;47.316;-1.348;2023-04-03T00:20:31;3.47;;;1.90;;
4686;SDS011;2357;47.316;-1.348;2023-04-03T00:22:57;1.77;;;1.40;;
4686;SDS011;2357;47.316;-1.348;2023-04-03T00:25:23;1.70;;;1.60;;
4686;SDS011;2357;47.316;-1.348;2023-04-03T00:27:48;6.03;;;1.30;;
4686;SDS011;2357;47.316;-1.348;2023-04-03T00:30:15;8.50;;;1.70;;
4686;SDS011;2357;47.316;-1.348;2023-04-03T00:32:43;10.90;;;1.50;;
4686;SDS011;2357;47.316;-1.348;2023-04-03T00:35:09;9.83;;;1.80;;
4686;SDS011;2357;47.316;-1.348;2023-04-03T00:37:35;8.40;;;1.50;;
4686;SDS011;2357;47.316;-1.348;2023-04-03T00:40:01;5.53;;;1.60;;
4686;SDS011;2357;47.316;-1.348;2023-04-03T00:42:28;4.13;;;1.70;;
4686;SDS011;2357;47.316;-1.348;2023-04-03T00:47:22;9.20;;;1.80;;
4686;SDS011;2357;47.316;-1.348;2023-04-03T00:49:48;2.70;;;1.17;;
4686;SDS011;2357;47.316;-1.348;2023-04-03T00:52:16;5.50;;;2.10;;
4686;SDS011;2357;47.316;-1.348;2023-04-03T00:54:46;5.97;;;1.90;;
4686;SDS011;2357;47.316;-1.348;2023-04-03T00:57:13;12.83;;;1.73;;
4686;SDS011;2357;47.316;-1.348;2023-04-03T00:59:42;5.20;;;2.23;;
4686;SDS011;2357;47.316;-1.348;2023-04-03T01:02:13;5.17;;;1.70;;
4686;SDS011;2357;47.316;-1.348;2023-04-03T01:04:40;5.57;;;1.53;;
4686;SDS011;2357;47.316;-1.348;2023-04-03T01:07:11;7.60;;;1.73;;
4686;SDS011;2357;47.316;-1.348;2023-04-03T01:09:38;4.07;;;1.33;;
4686;SDS011;2357;47.316;-1.348;2023-04-03T01:14:44;21.23;;;2.60;;
4686;SDS011;2357;47.316;-1.348;2023-04-03T01:18:12;8.80;;;2.43;;
4686;SDS011;2357;47.316;-1.348;2023-04-03T01:25:36;7.10;;;2.03;;
4686;SDS011;2357;47.316;-1.348;2023-04-03T01:28:17;6.77;;;2.17;;
4686;SDS011;2357;47.316;-1.348;2023-04-03T01:30:48;5.80;;;2.10;;
4686;SDS011;2357;47.316;-1.348;2023-04-03T01:33:21;8.00;;;2.50;;
4686;SDS011;2357;47.316;-1.348;2023-04-03T01:35:47;2.40;;;1.50;;
4686;SDS011;2357;47.316;-1.348;2023-04-03T01:38:12;9.93;;;2.37;;
4686;SDS011;2357;47.316;-1.348;2023-04-03T01:40:38;4.60;;;1.77;;
4686;SDS011;2357;47.316;-1.348;2023-04-03T01:43:04;5.50;;;2.20;;
4686;SDS011;2357;47.316;-1.348;2023-04-03T01:45:30;5.37;;;1.77;;
4686;SDS011;2357;47.316;-1.348;2023-04-03T01:47:55;8.93;;;1.53;;
4686;SDS011;2357;47.316;-1.348;2023-04-03T01:50:21;8.47;;;1.90;;
4686;SDS011;2357;47.316;-1.348;2023-04-03T01:52:47;8.30;;;2.27;;
4686;SDS011;2357;47.316;-1.348;2023-04-03T01:55:12;12.97;;;2.50;;
4686;SDS011;2357;47.316;-1.348;2023-04-03T01:57:38;5.70;;;1.73;;
4686;SDS011;2357;47.316;-1.348;2023-04-03T02:00:04;6.63;;;2.10;;
4686;SDS011;2357;47.316;-1.348;2023-04-03T02:02:30;4.20;;;1.97;;
4686;SDS011;2357;47.316;-1.348;2023-04-03T02:04:56;7.93;;;2.00;;
4686;SDS011;2357;47.316;-1.348;2023-04-03T02:07:21;11.53;;;2.67;;
4686;SDS011;2357;47.316;-1.348;2023-04-03T02:09:47;6.80;;;2.10;;
4686;SDS011;2357;47.316;-1.348;2023-04-03T02:12:12;8.07;;;2.27;;
4686;SDS011;2357;47.316;-1.348;2023-04-03T02:14:38;10.60;;;2.07;;
4686;SDS011;2357;47.316;-1.348;2023-04-03T02:17:04;6.67;;;2.00;;
4686;SDS011;2357;47.316;-1.348;2023-04-03T02:19:33;12.73;;;2.37;;
4686;SDS011;2357;47.316;-1.348;2023-04-03T02:22:00;7.50;;;2.50;;
4686;SDS011;2357;47.316;-1.348;2023-04-03T02:24:26;13.80;;;3.03;;
4686;SDS011;2357;47.316;-1.348;2023-04-03T02:26:52;14.93;;;2.30;;
4686;SDS011;2357;47.316;-1.348;2023-04-03T02:29:18;11.60;;;2.73;;
4686;SDS011;2357;47.316;-1.348;2023-04-03T02:31:44;10.23;;;2.13;;
4686;SDS011;2357;47.316;-1.348;2023-04-03T02:34:10;9.37;;;2.10;;
4686;SDS011;2357;47.316;-1.348;2023-04-03T02:36:35;8.87;;;1.30;;
4686;SDS011;2357;47.316;-1.348;2023-04-03T02:39:01;12.07;;;1.90;;
4686;SDS011;2357;47.316;-1.348;2023-04-03T02:41:27;6.90;;;2.53;;
4686;SDS011;2357;47.316;-1.348;2023-04-03T02:43:59;7.20;;;1.77;;
4686;SDS011;2357;47.316;-1.348;2023-04-03T02:46:28;8.60;;;2.30;;
4686;SDS011;2357;47.316;-1.348;2023-04-03T02:48:54;9.03;;;2.30;;
4686;SDS011;2357;47.316;-1.348;2023-04-03T02:51:21;8.73;;;2.70;;
4686;SDS011;2357;47.316;-1.348;2023-04-03T02:53:48;8.83;;;1.60;;
4686;SDS011;2357;47.316;-1.348;2023-04-03T02:56:14;9.33;;;3.13;;
4686;SDS011;2357;47.316;-1.348;2023-04-03T02:58:40;9.87;;;2.30;;
4686;SDS011;2357;47.316;-1.348;2023-04-03T03:01:05;12.57;;;2.67;;
4686;SDS011;2357;47.316;-1.348;2023-04-03T03:03:31;8.97;;;1.70;;
4686;SDS011;2357;47.316;-1.348;2023-04-03T03:06:00;22.90;;;2.57;;
4686;SDS011;2357;47.316;-1.348;2023-04-03T03:08:27;6.27;;;2.20;;
4686;SDS011;2357;47.316;-1.348;2023-04-03T03:10:53;4.60;;;2.20;;
4686;SDS011;2357;47.316;-1.348;2023-04-03T03:13:18;11.47;;;3.13;;
4686;SDS011;2357;47.316;-1.348;2023-04-03T03:15:44;9.43;;;2.77;;
4686;SDS011;2357;47.316;-1.348;2023-04-03T03:18:10;5.93;;;2.03;;
4686;SDS011;2357;47.316;-1.348;2023-04-03T03:20:35;8.33;;;1.93;;
4686;SDS011;2357;47.316;-1.348;2023-04-03T03:23:01;7.43;;;2.00;;
4686;SDS011;2357;47.316;-1.348;2023-04-03T03:25:26;13.53;;;2.97;;
4686;SDS011;2357;47.316;-1.348;2023-04-03T03:27:52;7.50;;;1.90;;
4686;SDS011;2357;47.316;-1.348;2023-04-03T03:30:18;10.07;;;2.20;;
4686;SDS011;2357;47.316;-1.348;2023-04-03T03:32:43;6.47;;;2.20;;
4686;SDS011;2357;47.316;-1.348;2023-04-03T03:35:09;9.37;;;3.00;;
4686;SDS011;2357;47.316;-1.348;2023-04-03T03:37:34;13.93;;;2.53;;
4686;SDS011;2357;47.316;-1.348;2023-04-03T03:40:00;6.47;;;2.30;;
4686;SDS011;2357;47.316;-1.348;2023-04-03T03:42:26;10.87;;;2.47;;
4686;SDS011;2357;47.316;-1.348;2023-04-03T03:44:51;12.07;;;2.17;;
4686;SDS011;2357;47.316;-1.348;2023-04-03T03:47:17;5.63;;;1.77;;
4686;SDS011;2357;47.316;-1.348;2023-04-03T03:49:42;15.07;;;2.20;;
4686;SDS011;2357;47.316;-1.348;2023-04-03T03:52:08;14.00;;;2.30;;
4686;SDS011;2357;47.316;-1.348;2023-04-03T03:54:35;8.40;;;2.50;;
4686;SDS011;2357;47.316;-1.348;2023-04-03T03:57:02;19.13;;;2.60;;
4686;SDS011;2357;47.316;-1.348;2023-04-03T03:59:27;8.87;;;2.77;;
4686;SDS011;2357;47.316;-1.348;2023-04-03T04:01:53;5.83;;;1.90;;
4686;SDS011;2357;47.316;-1.348;2023-04-03T04:04:19;9.03;;;2.17;;
4686;SDS011;2357;47.316;-1.348;2023-04-03T04:06:45;5.07;;;2.27;;
4686;SDS011;2357;47.316;-1.348;2023-04-03T04:09:11;12.43;;;2.40;;
4686;SDS011;2357;47.316;-1.348;2023-04-03T04:11:36;9.00;;;2.73;;
4686;SDS011;2357;47.316;-1.348;2023-04-03T04:14:04;9.83;;;1.73;;
4686;SDS011;2357;47.316;-1.348;2023-04-03T04:16:30;9.10;;;2.10;;
4686;SDS011;2357;47.316;-1.348;2023-04-03T04:18:56;14.60;;;2.60;;
4686;SDS011;2357;47.316;-1.348;2023-04-03T04:21:21;8.10;;;2.60;;
4686;SDS011;2357;47.316;-1.348;2023-04-03T04:23:47;9.60;;;2.43;;
4686;SDS011;2357;47.316;-1.348;2023-04-03T04:26:13;6.77;;;2.50;;
4686;SDS011;2357;47.316;-1.348;2023-04-03T04:28:38;10.40;;;3.10;;
4686;SDS011;2357;47.316;-1.348;2023-04-03T04:31:04;7.83;;;2.30;;
4686;SDS011;2357;47.316;-1.348;2023-04-03T04:33:29;9.50;;;2.00;;
4686;SDS011;2357;47.316;-1.348;2023-04-03T04:35:55;13.10;;;2.50;;
4686;SDS011;2357;47.316;-1.348;2023-04-03T04:38:21;7.83;;;2.30;;
4686;SDS011;2357;47.316;-1.348;2023-04-03T04:40:47;11.13;;;3.53;;
4686;SDS011;2357;47.316;-1.348;2023-04-03T04:43:13;11.10;;;2.23;;
4686;SDS011;2357;47.316;-1.348;2023-04-03T04:45:40;10.13;;;2.20;;
4686;SDS011;2357;47.316;-1.348;2023-04-03T04:48:06;7.60;;;2.73;;
4686;SDS011;2357;47.316;-1.348;2023-04-03T04:50:32;8.43;;;2.13;;
4686;SDS011;2357;47.316;-1.348;2023-04-03T04:52:57;16.03;;;2.90;;
4686;SDS011;2357;47.316;-1.348;2023-04-03T04:55:23;5.63;;;2.73;;
4686;SDS011;2357;47.316;-1.348;2023-04-03T04:57:49;11.97;;;2.67;;
4686;SDS011;2357;47.316;-1.348;2023-04-03T05:00:15;11.80;;;3.07;;
4686;SDS011;2357;47.316;-1.348;2023-04-03T05:02:41;6.70;;;2.00;;
4686;SDS011;2357;47.316;-1.348;2023-04-03T05:05:07;10.17;;;2.67;;
4686;SDS011;2357;47.316;-1.348;2023-04-03T05:07:33;10.83;;;2.67;;
4686;SDS011;2357;47.316;-1.348;2023-04-03T05:10:00;7.43;;;2.37;;
4686;SDS011;2357;47.316;-1.348;2023-04-03T05:12:27;9.50;;;3.20;;
4686;SDS011;2357;47.316;-1.348;2023-04-03T05:14:53;15.30;;;2.47;;
4686;SDS011;2357;47.316;-1.348;2023-04-03T05:17:19;7.23;;;2.93;;
4686;SDS011;2357;47.316;-1.348;2023-04-03T05:19:45;9.03;;;2.43;;
4686;SDS011;2357;47.316;-1.348;2023-04-03T05:22:10;19.80;;;3.50;;
4686;SDS011;2357;47.316;-1.348;2023-04-03T05:24:36;10.97;;;2.90;;
4686;SDS011;2357;47.316;-1.348;2023-04-03T05:27:02;4.53;;;2.17;;
4686;SDS011;2357;47.316;-1.348;2023-04-03T05:29:27;12.70;;;2.60;;
4686;SDS011;2357;47.316;-1.348;2023-04-03T05:31:53;8.70;;;2.80;;
4686;SDS011;2357;47.316;-1.348;2023-04-03T05:34:19;14.70;;;3.90;;
4686;SDS011;2357;47.316;-1.348;2023-04-03T05:36:45;4.10;;;2.27;;
4686;SDS011;2357;47.316;-1.348;2023-04-03T05:39:10;10.03;;;2.83;;
4686;SDS011;2357;47.316;-1.348;2023-04-03T05:41:36;7.97;;;2.40;;
4686;SDS011;2357;47.316;-1.348;2023-04-03T05:44:01;8.37;;;2.50;;
4686;SDS011;2357;47.316;-1.348;2023-04-03T05:46:27;9.20;;;2.60;;
4686;SDS011;2357;47.316;-1.348;2023-04-03T05:48:53;9.87;;;3.10;;
4686;SDS011;2357;47.316;-1.348;2023-04-03T05:51:19;9.27;;;2.87;;
4686;SDS011;2357;47.316;-1.348;2023-04-03T05:53:48;13.10;;;2.87;;
4686;SDS011;2357;47.316;-1.348;2023-04-03T05:56:18;14.00;;;2.60;;
4686;SDS011;2357;47.316;-1.348;2023-04-03T05:58:45;8.63;;;2.30;;
4686;SDS011;2357;47.316;-1.348;2023-04-03T06:01:11;6.70;;;2.20;;
4686;SDS011;2357;47.316;-1.348;2023-04-03T06:03:36;6.17;;;2.20;;
4686;SDS011;2357;47.316;-1.348;2023-04-03T06:06:03;9.50;;;2.97;;
4686;SDS011;2357;47.316;-1.348;2023-04-03T06:08:29;16.47;;;3.60;;
4686;SDS011;2357;47.316;-1.348;2023-04-03T06:10:55;4.80;;;2.53;;
4686;SDS011;2357;47.316;-1.348;2023-04-03T06:13:21;7.90;;;2.80;;
4686;SDS011;2357;47.316;-1.348;2023-04-03T06:15:47;5.83;;;2.23;;
4686;SDS011;2357;47.316;-1.348;2023-04-03T06:18:13;9.00;;;2.37;;
4686;SDS011;2357;47.316;-1.348;2023-04-03T06:20:39;10.13;;;3.33;;
4686;SDS011;2357;47.316;-1.348;2023-04-03T06:23:04;9.20;;;2.90;;
4686;SDS011;2357;47.316;-1.348;2023-04-03T06:25:30;19.27;;;3.03;;
4686;SDS011;2357;47.316;-1.348;2023-04-03T06:27:56;4.23;;;2.47;;
4686;SDS011;2357;47.316;-1.348;2023-04-03T06:30:22;7.80;;;2.40;;
4686;SDS011;2357;47.316;-1.348;2023-04-03T06:32:48;10.63;;;2.67;;
4686;SDS011;2357;47.316;-1.348;2023-04-03T06:35:13;7.80;;;2.30;;
4686;SDS011;2357;47.316;-1.348;2023-04-03T06:37:39;6.30;;;2.37;;
4686;SDS011;2357;47.316;-1.348;2023-04-03T06:40:05;7.30;;;2.97;;
4686;SDS011;2357;47.316;-1.348;2023-04-03T06:42:31;7.70;;;3.87;;
4686;SDS011;2357;47.316;-1.348;2023-04-03T06:44:56;4.50;;;2.40;;
4686;SDS011;2357;47.316;-1.348;2023-04-03T06:47:22;5.97;;;2.40;;
4686;SDS011;2357;47.316;-1.348;2023-04-03T06:49:48;8.07;;;3.00;;
4686;SDS011;2357;47.316;-1.348;2023-04-03T06:52:13;7.90;;;2.93;;
4686;SDS011;2357;47.316;-1.348;2023-04-03T06:54:39;5.10;;;2.67;;
4686;SDS011;2357;47.316;-1.348;2023-04-03T06:57:05;6.63;;;2.00;;
4686;SDS011;2357;47.316;-1.348;2023-04-03T06:59:31;10.13;;;3.07;;
4686;SDS011;2357;47.316;-1.348;2023-04-03T07:01:57;10.53;;;3.20;;
4686;SDS011;2357;47.316;-1.348;2023-04-03T07:04:24;5.17;;;2.60;;
4686;SDS011;2357;47.316;-1.348;2023-04-03T07:06:50;5.90;;;2.80;;
4686;SDS011;2357;47.316;-1.348;2023-04-03T07:09:17;11.33;;;2.80;;
4686;SDS011;2357;47.316;-1.348;2023-04-03T07:11:43;4.00;;;2.27;;
4686;SDS011;2357;47.316;-1.348;2023-04-03T07:14:09;17.03;;;2.77;;
4686;SDS011;2357;47.316;-1.348;2023-04-03T07:16:35;11.97;;;3.13;;
4686;SDS011;2357;47.316;-1.348;2023-04-03T07:19:01;7.03;;;3.60;;
4686;SDS011;2357;47.316;-1.348;2023-04-03T07:21:27;10.30;;;4.40;;
4686;SDS011;2357;47.316;-1.348;2023-04-03T07:23:53;9.07;;;3.07;;
4686;SDS011;2357;47.316;-1.348;2023-04-03T07:26:19;4.37;;;2.50;;
4686;SDS011;2357;47.316;-1.348;2023-04-03T07:28:46;5.10;;;2.90;;
4686;SDS011;2357;47.316;-1.348;2023-04-03T07:31:13;14.10;;;2.77;;
4686;SDS011;2357;47.316;-1.348;2023-04-03T07:33:41;6.30;;;2.83;;
4686;SDS011;2357;47.316;-1.348;2023-04-03T07:36:07;6.50;;;3.33;;
4686;SDS011;2357;47.316;-1.348;2023-04-03T07:38:36;3.93;;;2.80;;
4686;SDS011;2357;47.316;-1.348;2023-04-03T07:41:02;11.13;;;3.33;;
4686;SDS011;2357;47.316;-1.348;2023-04-03T07:43:28;16.80;;;2.97;;
4686;SDS011;2357;47.316;-1.348;2023-04-03T07:45:54;2.93;;;2.33;;
4686;SDS011;2357;47.316;-1.348;2023-04-03T07:48:23;9.30;;;3.47;;
4686;SDS011;2357;47.316;-1.348;2023-04-03T07:50:50;5.53;;;3.17;;
4686;SDS011;2357;47.316;-1.348;2023-04-03T07:53:17;7.93;;;3.37;;
4686;SDS011;2357;47.316;-1.348;2023-04-03T07:55:46;6.97;;;2.77;;
4686;SDS011;2357;47.316;-1.348;2023-04-03T07:58:13;6.40;;;2.70;;
4686;SDS011;2357;47.316;-1.348;2023-04-03T08:00:42;9.47;;;3.00;;
4686;SDS011;2357;47.316;-1.348;2023-04-03T08:03:09;8.70;;;3.70;;
4686;SDS011;2357;47.316;-1.348;2023-04-03T08:05:37;5.13;;;2.70;;
4686;SDS011;2357;47.316;-1.348;2023-04-03T08:08:04;5.50;;;2.30;;
4686;SDS011;2357;47.316;-1.348;2023-04-03T08:10:31;2.93;;;2.30;;
4686;SDS011;2357;47.316;-1.348;2023-04-03T08:12:58;3.70;;;2.23;;
4686;SDS011;2357;47.316;-1.348;2023-04-03T08:15:23;3.17;;;2.93;;
4686;SDS011;2357;47.316;-1.348;2023-04-03T08:17:49;4.97;;;2.63;;
4686;SDS011;2357;47.316;-1.348;2023-04-03T08:20:15;4.10;;;2.03;;
4686;SDS011;2357;47.316;-1.348;2023-04-03T08:22:42;2.80;;;2.20;;
4686;SDS011;2357;47.316;-1.348;2023-04-03T08:25:08;5.37;;;2.80;;
4686;SDS011;2357;47.316;-1.348;2023-04-03T08:27:34;3.63;;;2.60;;
4686;SDS011;2357;47.316;-1.348;2023-04-03T08:30:00;2.90;;;2.70;;
4686;SDS011;2357;47.316;-1.348;2023-04-03T08:32:26;3.73;;;2.87;;
4686;SDS011;2357;47.316;-1.348;2023-04-03T08:34:52;3.20;;;2.47;;
4686;SDS011;2357;47.316;-1.348;2023-04-03T08:37:18;4.33;;;2.90;;
4686;SDS011;2357;47.316;-1.348;2023-04-03T08:39:44;6.27;;;3.27;;
4686;SDS011;2357;47.316;-1.348;2023-04-03T08:50:14;4.97;;;3.00;;
4686;SDS011;2357;47.316;-1.348;2023-04-03T08:52:52;4.97;;;2.77;;
4686;SDS011;2357;47.316;-1.348;2023-04-03T08:55:26;3.67;;;3.30;;
4686;SDS011;2357;47.316;-1.348;2023-04-03T08:58:01;4.53;;;3.20;;
4686;SDS011;2357;47.316;-1.348;2023-04-03T09:00:34;3.57;;;3.20;;
4686;SDS011;2357;47.316;-1.348;2023-04-03T09:03:11;3.73;;;3.40;;
4686;SDS011;2357;47.316;-1.348;2023-04-03T09:16:47;4.37;;;3.80;;
4686;SDS011;2357;47.316;-1.348;2023-04-03T09:19:25;5.07;;;4.60;;
4686;SDS011;2357;47.316;-1.348;2023-04-03T09:25:36;7.43;;;3.40;;
4686;SDS011;2357;47.316;-1.348;2023-04-03T09:27:40;3.73;;;2.97;;
4686;SDS011;2357;47.316;-1.348;2023-04-03T09:30:11;3.80;;;3.00;;
4686;SDS011;2357;47.316;-1.348;2023-04-03T09:32:43;3.33;;;2.93;;
4686;SDS011;2357;47.316;-1.348;2023-04-03T09:40:42;4.17;;;3.77;;
4686;SDS011;2357;47.316;-1.348;2023-04-03T09:43:29;3.20;;;2.90;;
4686;SDS011;2357;47.316;-1.348;2023-04-03T09:46:15;5.97;;;3.13;;
4686;SDS011;2357;47.316;-1.348;2023-04-03T09:49:03;5.20;;;3.90;;
4686;SDS011;2357;47.316;-1.348;2023-04-03T09:51:30;7.07;;;4.50;;
4686;SDS011;2357;47.316;-1.348;2023-04-03T09:53:57;4.53;;;3.80;;
4686;SDS011;2357;47.316;-1.348;2023-04-03T09:56:27;4.17;;;3.77;;
4686;SDS011;2357;47.316;-1.348;2023-04-03T10:06:40;2.77;;;2.60;;
4686;SDS011;2357;47.316;-1.348;2023-04-03T10:09:23;3.23;;;2.93;;
4686;SDS011;2357;47.316;-1.348;2023-04-03T10:12:04;4.57;;;2.70;;
4686;SDS011;2357;47.316;-1.348;2023-04-03T10:15:17;3.43;;;2.90;;
4686;SDS011;2357;47.316;-1.348;2023-04-03T10:19:53;2.53;;;2.33;;
4686;SDS011;2357;47.316;-1.348;2023-04-03T10:25:18;3.70;;;3.23;;
4686;SDS011;2357;47.316;-1.348;2023-04-03T10:27:53;3.27;;;3.00;;
4686;SDS011;2357;47.316;-1.348;2023-04-03T10:33:33;3.73;;;3.43;;
4686;SDS011;2357;47.316;-1.348;2023-04-03T10:46:06;6.53;;;4.17;;
4686;SDS011;2357;47.316;-1.348;2023-04-03T10:48:35;3.97;;;3.67;;
4686;SDS011;2357;47.316;-1.348;2023-04-03T10:56:47;6.50;;;4.03;;
4686;SDS011;2357;47.316;-1.348;2023-04-03T11:01:45;5.53;;;3.87;;
4686;SDS011;2357;47.316;-1.348;2023-04-03T11:04:20;4.77;;;4.37;;
4686;SDS011;2357;47.316;-1.348;2023-04-03T11:06:53;7.20;;;4.00;;
4686;SDS011;2357;47.316;-1.348;2023-04-03T11:09:34;5.33;;;4.53;;
4686;SDS011;2357;47.316;-1.348;2023-04-03T11:14:40;5.23;;;4.73;;
4686;SDS011;2357;47.316;-1.348;2023-04-03T11:17:10;7.10;;;4.77;;
4686;SDS011;2357;47.316;-1.348;2023-04-03T11:19:50;3.60;;;3.30;;
4686;SDS011;2357;47.316;-1.348;2023-04-03T11:22:36;5.40;;;4.90;;
4686;SDS011;2357;47.316;-1.348;2023-04-03T11:25:14;7.83;;;5.10;;
4686;SDS011;2357;47.316;-1.348;2023-04-03T11:27:48;10.10;;;5.30;;
4686;SDS011;2357;47.316;-1.348;2023-04-03T11:30:20;6.30;;;4.80;;
4686;SDS011;2357;47.316;-1.348;2023-04-03T11:35:28;6.77;;;4.47;;
4686;SDS011;2357;47.316;-1.348;2023-04-03T11:37:55;6.33;;;5.20;;
4686;SDS011;2357;47.316;-1.348;2023-04-03T11:40:24;7.87;;;4.20;;
4686;SDS011;2357;47.316;-1.348;2023-04-03T11:42:52;7.03;;;5.23;;
4686;SDS011;2357;47.316;-1.348;2023-04-03T11:47:56;5.73;;;4.37;;
4686;SDS011;2357;47.316;-1.348;2023-04-03T12:03:31;7.00;;;5.10;;
4686;SDS011;2357;47.316;-1.348;2023-04-03T12:06:43;6.23;;;4.67;;
4686;SDS011;2357;47.316;-1.348;2023-04-03T12:14:22;5.77;;;5.13;;
4686;SDS011;2357;47.316;-1.348;2023-04-03T12:16:56;8.07;;;5.37;;
4686;SDS011;2357;47.316;-1.348;2023-04-03T12:43:05;4.10;;;3.70;;
4686;SDS011;2357;47.316;-1.348;2023-04-03T12:48:30;4.30;;;3.83;;
4686;SDS011;2357;47.316;-1.348;2023-04-03T12:50:59;3.47;;;3.17;;
4686;SDS011;2357;47.316;-1.348;2023-04-03T12:53:26;4.37;;;3.40;;
4686;SDS011;2357;47.316;-1.348;2023-04-03T12:55:55;4.10;;;3.70;;
4686;SDS011;2357;47.316;-1.348;2023-04-03T12:58:23;5.47;;;4.00;;
4686;SDS011;2357;47.316;-1.348;2023-04-03T13:01:15;3.57;;;3.27;;
4686;SDS011;2357;47.316;-1.348;2023-04-03T13:03:44;3.53;;;3.23;;
4686;SDS011;2357;47.316;-1.348;2023-04-03T13:06:26;3.53;;;3.30;;
4686;SDS011;2357;47.316;-1.348;2023-04-03T13:08:59;6.00;;;2.83;;
4686;SDS011;2357;47.316;-1.348;2023-04-03T13:11:33;3.53;;;3.27;;
4686;SDS011;2357;47.316;-1.348;2023-04-03T13:14:03;3.03;;;2.83;;
4686;SDS011;2357;47.316;-1.348;2023-04-03T13:16:31;6.23;;;3.03;;
4686;SDS011;2357;47.316;-1.348;2023-04-03T13:18:58;3.10;;;2.73;;
4686;SDS011;2357;47.316;-1.348;2023-04-03T13:21:26;6.47;;;3.40;;
4686;SDS011;2357;47.316;-1.348;2023-04-03T13:23:55;2.67;;;2.47;;
4686;SDS011;2357;47.316;-1.348;2023-04-03T13:26:24;2.87;;;2.67;;
4686;SDS011;2357;47.316;-1.348;2023-04-03T13:28:52;3.67;;;3.37;;
4686;SDS011;2357;47.316;-1.348;2023-04-03T13:31:39;4.03;;;2.30;;
4686;SDS011;2357;47.316;-1.348;2023-04-03T13:34:06;2.83;;;2.63;;
4686;SDS011;2357;47.316;-1.348;2023-04-03T13:36:37;2.83;;;2.53;;
4686;SDS011;2357;47.316;-1.348;2023-04-03T13:41:45;3.07;;;2.53;;
4686;SDS011;2357;47.316;-1.348;2023-04-03T13:46:51;2.20;;;2.00;;
4686;SDS011;2357;47.316;-1.348;2023-04-03T13:49:29;2.23;;;2.03;;
4686;SDS011;2357;47.316;-1.348;2023-04-03T13:52:17;3.40;;;3.10;;
4686;SDS011;2357;47.316;-1.348;2023-04-03T13:54:57;2.10;;;2.00;;
4686;SDS011;2357;47.316;-1.348;2023-04-03T13:57:25;5.13;;;2.97;;
4686;SDS011;2357;47.316;-1.348;2023-04-03T13:59:51;2.10;;;2.00;;
4686;SDS011;2357;47.316;-1.348;2023-04-03T14:02:39;3.03;;;2.60;;
4686;SDS011;2357;47.316;-1.348;2023-04-03T14:05:04;2.43;;;2.23;;
4686;SDS011;2357;47.316;-1.348;2023-04-03T14:07:33;2.97;;;2.20;;
4686;SDS011;2357;47.316;-1.348;2023-04-03T14:09:59;4.20;;;2.13;;
4686;SDS011;2357;47.316;-1.348;2023-04-03T14:12:26;2.83;;;2.60;;
4686;SDS011;2357;47.316;-1.348;2023-04-03T14:14:56;5.63;;;2.33;;
4686;SDS011;2357;47.316;-1.348;2023-04-03T14:17:24;2.10;;;2.00;;
4686;SDS011;2357;47.316;-1.348;2023-04-03T14:19:52;3.07;;;2.53;;
4686;SDS011;2357;47.316;-1.348;2023-04-03T14:22:21;2.50;;;2.30;;
4686;SDS011;2357;47.316;-1.348;2023-04-03T14:24:58;4.60;;;2.97;;
4686;SDS011;2357;47.316;-1.348;2023-04-03T14:29:53;2.70;;;2.30;;
4686;SDS011;2357;47.316;-1.348;2023-04-03T14:32:20;2.37;;;2.27;;
4686;SDS011;2357;47.316;-1.348;2023-04-03T14:34:47;2.17;;;2.07;;
4686;SDS011;2357;47.316;-1.348;2023-04-03T14:37:14;2.40;;;2.30;;
4686;SDS011;2357;47.316;-1.348;2023-04-03T14:39:43;2.33;;;2.13;;
4686;SDS011;2357;47.316;-1.348;2023-04-03T14:42:14;2.70;;;2.53;;
4686;SDS011;2357;47.316;-1.348;2023-04-03T14:44:42;2.50;;;2.00;;
4686;SDS011;2357;47.316;-1.348;2023-04-03T14:47:16;6.20;;;2.30;;
4686;SDS011;2357;47.316;-1.348;2023-04-03T14:49:44;4.70;;;2.30;;
4686;SDS011;2357;47.316;-1.348;2023-04-03T14:52:16;2.93;;;2.20;;
4686;SDS011;2357;47.316;-1.348;2023-04-03T14:54:51;2.30;;;2.20;;
4686;SDS011;2357;47.316;-1.348;2023-04-03T14:57:18;2.67;;;2.50;;
4686;SDS011;2357;47.316;-1.348;2023-04-03T14:59:44;2.47;;;2.33;;
4686;SDS011;2357;47.316;-1.348;2023-04-03T15:04:59;1.90;;;1.80;;
4686;SDS011;2357;47.316;-1.348;2023-04-03T15:07:29;2.63;;;2.53;;
4686;SDS011;2357;47.316;-1.348;2023-04-03T15:09:57;2.47;;;2.27;;
4686;SDS011;2357;47.316;-1.348;2023-04-03T15:12:24;2.63;;;2.43;;
4686;SDS011;2357;47.316;-1.348;2023-04-03T15:14:50;1.87;;;1.77;;
4686;SDS011;2357;47.316;-1.348;2023-04-03T15:17:18;4.23;;;2.27;;
4686;SDS011;2357;47.316;-1.348;2023-04-03T15:19:46;4.47;;;2.77;;
4686;SDS011;2357;47.316;-1.348;2023-04-03T15:22:16;2.90;;;2.60;;
4686;SDS011;2357;47.316;-1.348;2023-04-03T15:24:43;2.33;;;2.13;;
4686;SDS011;2357;47.316;-1.348;2023-04-03T15:27:09;3.13;;;2.07;;
4686;SDS011;2357;47.316;-1.348;2023-04-03T15:29:37;2.27;;;2.07;;
4686;SDS011;2357;47.316;-1.348;2023-04-03T15:32:04;2.57;;;2.20;;
4686;SDS011;2357;47.316;-1.348;2023-04-03T15:34:30;2.60;;;2.40;;
4686;SDS011;2357;47.316;-1.348;2023-04-03T15:36:56;2.43;;;2.33;;
4686;SDS011;2357;47.316;-1.348;2023-04-03T15:39:21;2.10;;;2.00;;
4686;SDS011;2357;47.316;-1.348;2023-04-03T15:41:48;2.87;;;1.90;;
4686;SDS011;2357;47.316;-1.348;2023-04-03T15:44:14;2.10;;;2.00;;
4686;SDS011;2357;47.316;-1.348;2023-04-03T15:46:42;2.60;;;2.40;;
4686;SDS011;2357;47.316;-1.348;2023-04-03T15:49:09;2.53;;;2.43;;
4686;SDS011;2357;47.316;-1.348;2023-04-03T15:51:35;2.80;;;2.60;;
4686;SDS011;2357;47.316;-1.348;2023-04-03T15:54:00;3.40;;;2.40;;
4686;SDS011;2357;47.316;-1.348;2023-04-03T15:56:26;2.00;;;1.90;;
4686;SDS011;2357;47.316;-1.348;2023-04-03T15:58:52;6.17;;;2.33;;
4686;SDS011;2357;47.316;-1.348;2023-04-03T16:01:17;2.70;;;2.50;;
4686;SDS011;2357;47.316;-1.348;2023-04-03T16:03:43;2.03;;;1.93;;
4686;SDS011;2357;47.316;-1.348;2023-04-03T16:06:13;1.97;;;1.87;;
4686;SDS011;2357;47.316;-1.348;2023-04-03T16:08:40;2.10;;;2.00;;
4686;SDS011;2357;47.316;-1.348;2023-04-03T16:11:06;4.67;;;2.47;;
4686;SDS011;2357;47.316;-1.348;2023-04-03T16:13:32;2.83;;;2.50;;
4686;SDS011;2357;47.316;-1.348;2023-04-03T16:15:59;2.40;;;2.30;;
4686;SDS011;2357;47.316;-1.348;2023-04-03T16:18:26;2.43;;;1.60;;
4686;SDS011;2357;47.316;-1.348;2023-04-03T16:20:52;2.60;;;2.23;;
4686;SDS011;2357;47.316;-1.348;2023-04-03T16:23:18;2.20;;;2.00;;
4686;SDS011;2357;47.316;-1.348;2023-04-03T16:25:44;2.80;;;2.00;;
4686;SDS011;2357;47.316;-1.348;2023-04-03T16:28:11;2.80;;;2.50;;
4686;SDS011;2357;47.316;-1.348;2023-04-03T16:30:39;2.10;;;1.90;;
4686;SDS011;2357;47.316;-1.348;2023-04-03T16:33:09;2.23;;;2.10;;
4686;SDS011;2357;47.316;-1.348;2023-04-03T16:35:36;2.40;;;2.30;;
4686;SDS011;2357;47.316;-1.348;2023-04-03T16:38:02;2.47;;;2.37;;
4686;SDS011;2357;47.316;-1.348;2023-04-03T16:40:28;2.00;;;1.90;;
4686;SDS011;2357;47.316;-1.348;2023-04-03T16:42:53;2.10;;;2.00;;
4686;SDS011;2357;47.316;-1.348;2023-04-03T16:45:19;1.93;;;1.83;;
4686;SDS011;2357;47.316;-1.348;2023-04-03T16:47:45;2.87;;;2.67;;
4686;SDS011;2357;47.316;-1.348;2023-04-03T16:50:11;1.73;;;1.63;;
4686;SDS011;2357;47.316;-1.348;2023-04-03T16:52:36;2.57;;;1.57;;
4686;SDS011;2357;47.316;-1.348;2023-04-03T16:55:02;2.13;;;1.97;;
4686;SDS011;2357;47.316;-1.348;2023-04-03T16:57:28;3.50;;;2.63;;
4686;SDS011;2357;47.316;-1.348;2023-04-03T16:59:54;1.90;;;1.80;;
4686;SDS011;2357;47.316;-1.348;2023-04-03T17:02:20;3.03;;;2.90;;
4686;SDS011;2357;47.316;-1.348;2023-04-03T17:04:49;3.93;;;2.63;;
4686;SDS011;2357;47.316;-1.348;2023-04-03T17:07:16;2.23;;;2.03;;
4686;SDS011;2357;47.316;-1.348;2023-04-03T17:09:42;2.63;;;2.07;;
4686;SDS011;2357;47.316;-1.348;2023-04-03T17:12:08;2.50;;;2.30;;
4686;SDS011;2357;47.316;-1.348;2023-04-03T17:14:33;2.57;;;2.37;;
4686;SDS011;2357;47.316;-1.348;2023-04-03T17:16:59;2.70;;;2.60;;
4686;SDS011;2357;47.316;-1.348;2023-04-03T17:19:25;2.60;;;2.40;;
4686;SDS011;2357;47.316;-1.348;2023-04-03T17:21:52;7.30;;;2.53;;